WJA525 CYEG-CYLW
Flight info
| Callsign | WJA525 |
|---|---|
| Flight time | 0h 53m |
| Altitude | 38000 |
| Route | ANDIE DCT NADPI DCT ENDBY DCT HUMEK DCT WTMAN |
| Aircraft | B737/M-SDE2E3FGHIRWXY/LB1 |
Departure
| Time | 2026-04-29 14:24 |
|---|---|
| Airport | Edmonton International Airport (CYEG) |
Arrival
| Time | 2026-04-29 15:17 |
|---|---|
| Airport | Kelowna International Airport (CYLW) |
| Time | Latitude | Longitude | Altitude | Speed | Heading |
|---|---|---|---|---|---|
| 2026-04-29 14:02 | 53.30604 | -113.58481 | 2383 ft | 0 kts | 71° |
| 2026-04-29 14:13 | 53.30597 | -113.58515 | 2383 ft | 4 kts | 71° |
| 2026-04-29 14:13 | 53.30590 | -113.58549 | 2388 ft | 3 kts | 70° |
| 2026-04-29 14:13 | 53.30578 | -113.58588 | 2383 ft | 4 kts | 42° |
| 2026-04-29 14:14 | 53.30558 | -113.58602 | 2385 ft | 4 kts | 338° |
| 2026-04-29 14:14 | 53.30539 | -113.58577 | 2383 ft | 4 kts | 315° |
| 2026-04-29 14:14 | 53.30536 | -113.58571 | 2383 ft | 1 kts | 315° |
| 2026-04-29 14:18 | 53.30542 | -113.58581 | 2383 ft | 2 kts | 315° |
| 2026-04-29 14:18 | 53.30559 | -113.58611 | 2383 ft | 5 kts | 315° |
| 2026-04-29 14:19 | 53.30587 | -113.58661 | 2383 ft | 7 kts | 305° |
| 2026-04-29 14:19 | 53.30599 | -113.58733 | 2383 ft | 6 kts | 274° |
| 2026-04-29 14:19 | 53.30574 | -113.58790 | 2383 ft | 6 kts | 221° |
| 2026-04-29 14:19 | 53.30542 | -113.58840 | 2388 ft | 6 kts | 224° |
| 2026-04-29 14:20 | 53.30524 | -113.58900 | 2383 ft | 6 kts | 270° |
| 2026-04-29 14:20 | 53.30546 | -113.58958 | 2383 ft | 6 kts | 315° |
| 2026-04-29 14:20 | 53.30579 | -113.59014 | 2387 ft | 8 kts | 315° |
| 2026-04-29 14:20 | 53.30628 | -113.59096 | 2385 ft | 11 kts | 315° |
| 2026-04-29 14:21 | 53.30682 | -113.59186 | 2383 ft | 11 kts | 315° |
| 2026-04-29 14:21 | 53.30733 | -113.59276 | 2383 ft | 10 kts | 302° |
| 2026-04-29 14:21 | 53.30725 | -113.59386 | 2385 ft | 10 kts | 229° |
| 2026-04-29 14:21 | 53.30670 | -113.59456 | 2385 ft | 10 kts | 218° |
| 2026-04-29 14:22 | 53.30626 | -113.59535 | 2383 ft | 8 kts | 208° |
| 2026-04-29 14:22 | 53.30586 | -113.59505 | 2381 ft | 6 kts | 134° |
| 2026-04-29 14:22 | 53.30576 | -113.59488 | 2382 ft | 0 kts | 135° |
| 2026-04-29 14:23 | 53.30574 | -113.59484 | 2382 ft | 3 kts | 135° |
| 2026-04-29 14:23 | 53.30457 | -113.59289 | 2384 ft | 58 kts | 135° |
| 2026-04-29 14:23 | 53.29999 | -113.58522 | 2381 ft | 126 kts | 135° |
| 2026-04-29 14:24 | 53.29269 | -113.57294 | 2478 ft | 169 kts | 135° |
| 2026-04-29 14:24 | 53.28433 | -113.55836 | 3095 ft | 179 kts | 134° |
| 2026-04-29 14:24 | 53.27525 | -113.54283 | 3708 ft | 195 kts | 134° |
| 2026-04-29 14:24 | 53.26365 | -113.53029 | 4335 ft | 207 kts | 165° |
| 2026-04-29 14:25 | 53.24873 | -113.53025 | 4677 ft | 230 kts | 201° |
| 2026-04-29 14:25 | 53.23551 | -113.54620 | 5091 ft | 243 kts | 238° |
| 2026-04-29 14:25 | 53.22836 | -113.57269 | 5658 ft | 260 kts | 253° |
| 2026-04-29 14:25 | 53.22212 | -113.60145 | 6584 ft | 266 kts | 251° |
| 2026-04-29 14:26 | 53.21488 | -113.62968 | 7646 ft | 267 kts | 250° |
| 2026-04-29 14:26 | 53.20730 | -113.65787 | 8515 ft | 272 kts | 250° |
| 2026-04-29 14:26 | 53.19905 | -113.68634 | 9550 ft | 272 kts | 248° |
| 2026-04-29 14:26 | 53.19045 | -113.71470 | 10384 ft | 280 kts | 250° |
| 2026-04-29 14:27 | 53.18172 | -113.74538 | 10648 ft | 307 kts | 250° |
| 2026-04-29 14:27 | 53.17226 | -113.77867 | 11093 ft | 325 kts | 249° |
| 2026-04-29 14:27 | 53.16230 | -113.81300 | 11876 ft | 332 kts | 248° |
| 2026-04-29 14:28 | 53.14152 | -113.88280 | 13626 ft | 340 kts | 247° |
| 2026-04-29 14:28 | 53.13082 | -113.91825 | 14374 ft | 345 kts | 247° |
| 2026-04-29 14:28 | 53.11993 | -113.95417 | 15076 ft | 350 kts | 247° |
| 2026-04-29 14:28 | 53.10901 | -113.99005 | 15791 ft | 354 kts | 247° |
| 2026-04-29 14:29 | 53.09779 | -114.02684 | 16542 ft | 358 kts | 247° |
| 2026-04-29 14:29 | 53.08645 | -114.06394 | 17279 ft | 362 kts | 247° |
| 2026-04-29 14:29 | 53.07493 | -114.10159 | 17991 ft | 368 kts | 247° |
| 2026-04-29 14:29 | 53.06324 | -114.13972 | 18801 ft | 371 kts | 247° |
| 2026-04-29 14:30 | 53.05145 | -114.17812 | 19543 ft | 375 kts | 247° |
| 2026-04-29 14:30 | 53.03951 | -114.21694 | 20268 ft | 379 kts | 247° |
| 2026-04-29 14:30 | 53.02742 | -114.25620 | 20982 ft | 384 kts | 247° |
| 2026-04-29 14:30 | 53.01536 | -114.29536 | 21676 ft | 388 kts | 247° |
| 2026-04-29 14:31 | 53.00297 | -114.33545 | 22373 ft | 393 kts | 247° |
| 2026-04-29 14:31 | 52.99042 | -114.37598 | 23048 ft | 397 kts | 247° |
| 2026-04-29 14:31 | 52.97649 | -114.41601 | 23751 ft | 404 kts | 242° |
| 2026-04-29 14:31 | 52.96096 | -114.45506 | 24362 ft | 407 kts | 240° |
| 2026-04-29 14:32 | 52.94480 | -114.49396 | 24913 ft | 412 kts | 239° |
| 2026-04-29 14:32 | 52.92835 | -114.53314 | 25420 ft | 416 kts | 239° |
| 2026-04-29 14:32 | 52.91176 | -114.57270 | 25967 ft | 420 kts | 239° |
| 2026-04-29 14:32 | 52.89529 | -114.61218 | 26489 ft | 424 kts | 240° |
| 2026-04-29 14:33 | 52.87852 | -114.65259 | 27002 ft | 428 kts | 240° |
| 2026-04-29 14:33 | 52.86163 | -114.69345 | 27495 ft | 432 kts | 240° |
| 2026-04-29 14:33 | 52.84460 | -114.73469 | 27987 ft | 436 kts | 240° |
| 2026-04-29 14:33 | 52.82743 | -114.77629 | 28464 ft | 440 kts | 240° |
| 2026-04-29 14:34 | 52.81008 | -114.81828 | 28938 ft | 444 kts | 240° |
| 2026-04-29 14:34 | 52.79259 | -114.86055 | 29394 ft | 448 kts | 240° |
| 2026-04-29 14:34 | 52.77493 | -114.90316 | 29840 ft | 451 kts | 240° |
| 2026-04-29 14:34 | 52.75712 | -114.94606 | 30245 ft | 455 kts | 240° |
| 2026-04-29 14:35 | 52.73916 | -114.98923 | 30621 ft | 458 kts | 240° |
| 2026-04-29 14:35 | 52.72134 | -115.03197 | 31024 ft | 459 kts | 240° |
| 2026-04-29 14:35 | 52.70322 | -115.07535 | 31457 ft | 459 kts | 239° |
| 2026-04-29 14:35 | 52.68514 | -115.11856 | 31997 ft | 456 kts | 239° |
| 2026-04-29 14:36 | 52.66717 | -115.16138 | 32596 ft | 452 kts | 239° |
| 2026-04-29 14:36 | 52.64936 | -115.20378 | 33160 ft | 449 kts | 239° |
| 2026-04-29 14:36 | 52.63164 | -115.24593 | 33643 ft | 447 kts | 239° |
| 2026-04-29 14:36 | 52.61395 | -115.28796 | 34107 ft | 446 kts | 239° |
| 2026-04-29 14:37 | 52.59635 | -115.32972 | 34505 ft | 444 kts | 239° |
| 2026-04-29 14:37 | 52.57895 | -115.37094 | 34812 ft | 445 kts | 239° |
| 2026-04-29 14:37 | 52.56128 | -115.41274 | 35080 ft | 446 kts | 239° |
| 2026-04-29 14:37 | 52.54354 | -115.45464 | 35362 ft | 447 kts | 239° |
| 2026-04-29 14:38 | 52.52579 | -115.49647 | 35682 ft | 446 kts | 239° |
| 2026-04-29 14:38 | 52.50803 | -115.53826 | 35975 ft | 447 kts | 239° |
| 2026-04-29 14:38 | 52.49023 | -115.58007 | 36244 ft | 447 kts | 239° |
| 2026-04-29 14:38 | 52.47237 | -115.62194 | 36514 ft | 448 kts | 239° |
| 2026-04-29 14:39 | 52.45452 | -115.66373 | 36801 ft | 448 kts | 239° |
| 2026-04-29 14:39 | 52.43662 | -115.70557 | 37058 ft | 448 kts | 239° |
| 2026-04-29 14:39 | 52.41897 | -115.74675 | 37346 ft | 448 kts | 239° |
| 2026-04-29 14:39 | 52.40105 | -115.78848 | 37617 ft | 448 kts | 238° |
| 2026-04-29 14:40 | 52.38310 | -115.83023 | 37835 ft | 449 kts | 238° |
| 2026-04-29 14:40 | 52.36511 | -115.87202 | 38108 ft | 449 kts | 238° |
| 2026-04-29 14:40 | 52.34708 | -115.91382 | 38270 ft | 452 kts | 238° |
| 2026-04-29 14:41 | 52.31059 | -115.99824 | 38244 ft | 455 kts | 238° |
| 2026-04-29 14:41 | 52.27446 | -116.08145 | 38226 ft | 448 kts | 238° |
| 2026-04-29 14:42 | 52.23852 | -116.16397 | 38263 ft | 445 kts | 238° |
| 2026-04-29 14:42 | 52.20262 | -116.24621 | 38275 ft | 445 kts | 238° |
| 2026-04-29 14:43 | 52.16651 | -116.32869 | 38292 ft | 452 kts | 238° |
| 2026-04-29 14:43 | 52.12954 | -116.41290 | 38301 ft | 462 kts | 238° |
| 2026-04-29 14:44 | 52.09205 | -116.49794 | 38283 ft | 467 kts | 237° |
| 2026-04-29 14:44 | 52.05418 | -116.58346 | 38296 ft | 465 kts | 237° |
| 2026-04-29 14:45 | 52.01631 | -116.66872 | 38287 ft | 466 kts | 237° |
| 2026-04-29 14:45 | 51.97837 | -116.75393 | 38301 ft | 465 kts | 237° |
| 2026-04-29 14:46 | 51.94064 | -116.83837 | 38296 ft | 465 kts | 237° |
| 2026-04-29 14:46 | 51.90267 | -116.92308 | 38313 ft | 465 kts | 237° |
| 2026-04-29 14:47 | 51.86463 | -117.00767 | 38309 ft | 465 kts | 237° |
| 2026-04-29 14:47 | 51.82657 | -117.09200 | 38328 ft | 464 kts | 237° |
| 2026-04-29 14:48 | 51.78878 | -117.17550 | 38339 ft | 463 kts | 237° |
| 2026-04-29 14:48 | 51.75072 | -117.25936 | 38339 ft | 463 kts | 237° |
| 2026-04-29 14:49 | 51.71237 | -117.34266 | 38331 ft | 463 kts | 233° |
| 2026-04-29 14:49 | 51.66745 | -117.41755 | 38335 ft | 466 kts | 227° |
| 2026-04-29 14:50 | 51.62075 | -117.48970 | 38330 ft | 466 kts | 227° |
| 2026-04-29 14:50 | 51.57447 | -117.56165 | 38316 ft | 466 kts | 227° |
| 2026-04-29 14:51 | 51.52816 | -117.63441 | 38317 ft | 465 kts | 227° |
| 2026-04-29 14:51 | 51.48196 | -117.70716 | 38334 ft | 465 kts | 227° |
| 2026-04-29 14:52 | 51.43568 | -117.77984 | 38305 ft | 465 kts | 227° |
| 2026-04-29 14:52 | 51.38969 | -117.85182 | 38323 ft | 466 kts | 227° |
| 2026-04-29 14:53 | 51.34321 | -117.92433 | 38318 ft | 467 kts | 227° |
| 2026-04-29 14:53 | 51.29650 | -117.99698 | 38315 ft | 470 kts | 227° |
| 2026-04-29 14:54 | 51.24954 | -118.06980 | 38319 ft | 471 kts | 227° |
| 2026-04-29 14:54 | 51.20249 | -118.14251 | 38324 ft | 470 kts | 227° |
| 2026-04-29 14:55 | 51.15573 | -118.21458 | 38101 ft | 474 kts | 227° |
| 2026-04-29 14:55 | 51.13190 | -118.25127 | 37494 ft | 476 kts | 227° |
| 2026-04-29 14:55 | 51.10814 | -118.28775 | 36861 ft | 473 kts | 227° |
| 2026-04-29 14:55 | 51.08449 | -118.32397 | 36198 ft | 472 kts | 227° |
| 2026-04-29 14:56 | 51.06085 | -118.36015 | 35469 ft | 472 kts | 227° |
| 2026-04-29 14:56 | 51.03718 | -118.39633 | 34705 ft | 473 kts | 227° |
| 2026-04-29 14:56 | 51.01346 | -118.43255 | 33856 ft | 474 kts | 227° |
| 2026-04-29 14:56 | 50.98966 | -118.46885 | 32990 ft | 474 kts | 227° |
| 2026-04-29 14:57 | 50.96636 | -118.50429 | 32439 ft | 467 kts | 227° |
| 2026-04-29 14:57 | 50.94299 | -118.53978 | 31881 ft | 462 kts | 227° |
| 2026-04-29 14:57 | 50.91986 | -118.57484 | 31306 ft | 458 kts | 227° |
| 2026-04-29 14:57 | 50.89700 | -118.60949 | 30753 ft | 453 kts | 226° |
| 2026-04-29 14:58 | 50.87430 | -118.64384 | 30187 ft | 449 kts | 226° |
| 2026-04-29 14:58 | 50.85182 | -118.67782 | 29554 ft | 445 kts | 226° |
| 2026-04-29 14:58 | 50.82955 | -118.71141 | 28988 ft | 439 kts | 226° |
| 2026-04-29 14:58 | 50.80753 | -118.74460 | 28417 ft | 435 kts | 226° |
| 2026-04-29 14:59 | 50.78604 | -118.77695 | 27851 ft | 430 kts | 226° |
| 2026-04-29 14:59 | 50.76447 | -118.80938 | 27295 ft | 426 kts | 226° |
| 2026-04-29 14:59 | 50.74309 | -118.84149 | 26735 ft | 422 kts | 226° |
| 2026-04-29 14:59 | 50.72188 | -118.87332 | 26189 ft | 419 kts | 226° |
| 2026-04-29 15:00 | 50.70084 | -118.90482 | 25643 ft | 416 kts | 226° |
| 2026-04-29 15:00 | 50.67988 | -118.93600 | 25108 ft | 413 kts | 225° |
| 2026-04-29 15:00 | 50.65765 | -118.96448 | 24571 ft | 412 kts | 219° |
| 2026-04-29 15:00 | 50.63449 | -118.99093 | 24006 ft | 410 kts | 217° |
| 2026-04-29 15:01 | 50.61120 | -119.01673 | 23391 ft | 408 kts | 217° |
| 2026-04-29 15:01 | 50.58808 | -119.04229 | 22798 ft | 404 kts | 217° |
| 2026-04-29 15:01 | 50.56556 | -119.06739 | 22255 ft | 400 kts | 217° |
| 2026-04-29 15:01 | 50.54302 | -119.09271 | 21699 ft | 396 kts | 217° |
| 2026-04-29 15:02 | 50.52077 | -119.11782 | 21179 ft | 392 kts | 218° |
| 2026-04-29 15:02 | 50.49876 | -119.14274 | 20651 ft | 389 kts | 218° |
| 2026-04-29 15:02 | 50.47691 | -119.16747 | 20117 ft | 385 kts | 217° |
| 2026-04-29 15:02 | 50.45523 | -119.19199 | 19586 ft | 383 kts | 217° |
| 2026-04-29 15:03 | 50.43372 | -119.21630 | 19068 ft | 380 kts | 217° |
| 2026-04-29 15:03 | 50.41233 | -119.24045 | 18541 ft | 378 kts | 217° |
| 2026-04-29 15:03 | 50.39108 | -119.26439 | 17940 ft | 375 kts | 217° |
| 2026-04-29 15:03 | 50.36996 | -119.28815 | 17379 ft | 372 kts | 217° |
| 2026-04-29 15:04 | 50.34933 | -119.31134 | 16845 ft | 368 kts | 217° |
| 2026-04-29 15:04 | 50.32853 | -119.33483 | 16112 ft | 370 kts | 217° |
| 2026-04-29 15:04 | 50.30772 | -119.35838 | 15532 ft | 368 kts | 217° |
| 2026-04-29 15:04 | 50.28710 | -119.38167 | 14992 ft | 364 kts | 217° |
| 2026-04-29 15:05 | 50.26664 | -119.40472 | 14458 ft | 361 kts | 216° |
| 2026-04-29 15:05 | 50.24549 | -119.42530 | 13916 ft | 358 kts | 206° |
| 2026-04-29 15:05 | 50.22273 | -119.44034 | 13410 ft | 352 kts | 202° |
| 2026-04-29 15:05 | 50.20010 | -119.45461 | 12865 ft | 349 kts | 202° |
| 2026-04-29 15:06 | 50.17801 | -119.46851 | 12354 ft | 345 kts | 202° |
| 2026-04-29 15:06 | 50.15590 | -119.48251 | 11842 ft | 341 kts | 202° |
| 2026-04-29 15:06 | 50.13402 | -119.49644 | 11333 ft | 338 kts | 202° |
| 2026-04-29 15:06 | 50.11233 | -119.51030 | 10817 ft | 336 kts | 202° |
| 2026-04-29 15:07 | 50.09085 | -119.52406 | 10439 ft | 330 kts | 202° |
| 2026-04-29 15:07 | 50.07009 | -119.53737 | 10269 ft | 317 kts | 202° |
| 2026-04-29 15:07 | 50.05007 | -119.55019 | 10108 ft | 305 kts | 202° |
| 2026-04-29 15:07 | 50.03087 | -119.56249 | 9980 ft | 292 kts | 203° |
| 2026-04-29 15:08 | 50.01247 | -119.57430 | 9668 ft | 287 kts | 202° |
| 2026-04-29 15:08 | 49.99428 | -119.58597 | 9298 ft | 285 kts | 203° |
| 2026-04-29 15:08 | 49.97606 | -119.59764 | 8939 ft | 283 kts | 202° |
| 2026-04-29 15:08 | 49.95795 | -119.60918 | 8577 ft | 281 kts | 203° |
| 2026-04-29 15:09 | 49.94003 | -119.62061 | 8363 ft | 273 kts | 202° |
| 2026-04-29 15:09 | 49.92277 | -119.63162 | 8232 ft | 263 kts | 202° |
| 2026-04-29 15:09 | 49.90615 | -119.64216 | 8099 ft | 253 kts | 202° |
| 2026-04-29 15:09 | 49.89012 | -119.65226 | 7981 ft | 244 kts | 199° |
| 2026-04-29 15:10 | 49.87364 | -119.65468 | 7798 ft | 237 kts | 171° |
| 2026-04-29 15:10 | 49.85769 | -119.65060 | 7598 ft | 229 kts | 170° |
| 2026-04-29 15:10 | 49.84252 | -119.64675 | 7377 ft | 219 kts | 170° |
| 2026-04-29 15:10 | 49.82764 | -119.64287 | 7161 ft | 216 kts | 167° |
| 2026-04-29 15:11 | 49.81328 | -119.63605 | 6922 ft | 216 kts | 152° |
| 2026-04-29 15:11 | 49.80128 | -119.62260 | 6705 ft | 212 kts | 132° |
| 2026-04-29 15:11 | 49.79282 | -119.60428 | 6476 ft | 208 kts | 115° |
| 2026-04-29 15:11 | 49.78809 | -119.58345 | 6277 ft | 204 kts | 99° |
| 2026-04-29 15:12 | 49.78699 | -119.56177 | 6052 ft | 202 kts | 86° |
| 2026-04-29 15:12 | 49.78824 | -119.54751 | 5873 ft | 202 kts | 73° |
| 2026-04-29 15:12 | 49.79411 | -119.52001 | 5575 ft | 203 kts | 70° |
| 2026-04-29 15:12 | 49.79844 | -119.49917 | 5303 ft | 204 kts | 71° |
| 2026-04-29 15:13 | 49.80270 | -119.47842 | 5049 ft | 205 kts | 71° |
| 2026-04-29 15:13 | 49.80702 | -119.45730 | 4794 ft | 206 kts | 71° |
| 2026-04-29 15:13 | 49.81131 | -119.43626 | 4550 ft | 203 kts | 72° |
| 2026-04-29 15:13 | 49.81556 | -119.41563 | 4316 ft | 199 kts | 70° |
| 2026-04-29 15:14 | 49.82138 | -119.39715 | 4089 ft | 184 kts | 53° |
| 2026-04-29 15:14 | 49.83000 | -119.38377 | 3883 ft | 168 kts | 36° |
| 2026-04-29 15:14 | 49.83956 | -119.37551 | 3716 ft | 149 kts | 20° |
| 2026-04-29 15:14 | 49.84917 | -119.37160 | 3515 ft | 139 kts | 9° |
| 2026-04-29 15:15 | 49.85889 | -119.37079 | 3327 ft | 142 kts | 355° |
| 2026-04-29 15:15 | 49.86882 | -119.37120 | 3128 ft | 146 kts | 2° |
| 2026-04-29 15:15 | 49.87893 | -119.37022 | 2949 ft | 145 kts | 4° |
| 2026-04-29 15:15 | 49.88905 | -119.36936 | 2674 ft | 145 kts | 2° |
| 2026-04-29 15:16 | 49.89894 | -119.36979 | 2457 ft | 139 kts | 355° |
| 2026-04-29 15:16 | 49.90852 | -119.37128 | 2215 ft | 138 kts | 353° |
| 2026-04-29 15:16 | 49.91799 | -119.37277 | 2016 ft | 136 kts | 355° |
| 2026-04-29 15:16 | 49.92737 | -119.37384 | 1842 ft | 135 kts | 356° |
| 2026-04-29 15:17 | 49.93681 | -119.37515 | 1639 ft | 137 kts | 355° |
| 2026-04-29 15:17 | 49.94606 | -119.37641 | 1473 ft | 134 kts | 354° |
| 2026-04-29 15:17 | 49.95483 | -119.37762 | 1417 ft | 106 kts | 355° |
| 2026-04-29 15:17 | 49.96005 | -119.37834 | 1421 ft | 45 kts | 355° |
| 2026-04-29 15:18 | 49.96260 | -119.37869 | 1419 ft | 35 kts | 355° |
| 2026-04-29 15:18 | 49.96491 | -119.37903 | 1421 ft | 30 kts | 354° |
| 2026-04-29 15:18 | 49.96586 | -119.37924 | 1417 ft | 10 kts | 332° |
| 2026-04-29 15:18 | 49.96607 | -119.37990 | 1424 ft | 3 kts | 271° |
| 2026-04-29 15:19 | 49.96607 | -119.37996 | 1424 ft | 0 kts | 268° |
| 2026-04-29 15:20 | 49.96607 | -119.38004 | 1418 ft | 3 kts | 266° |
| 2026-04-29 15:20 | 49.96597 | -119.38042 | 1420 ft | 4 kts | 229° |
| 2026-04-29 15:20 | 49.96561 | -119.38052 | 1418 ft | 10 kts | 174° |
| 2026-04-29 15:20 | 49.96485 | -119.38042 | 1420 ft | 11 kts | 175° |
| 2026-04-29 15:21 | 49.96408 | -119.38031 | 1421 ft | 11 kts | 174° |
| 2026-04-29 15:21 | 49.96333 | -119.38021 | 1419 ft | 11 kts | 175° |
| 2026-04-29 15:21 | 49.96251 | -119.38009 | 1419 ft | 13 kts | 175° |
| 2026-04-29 15:21 | 49.96155 | -119.37995 | 1419 ft | 14 kts | 174° |
| 2026-04-29 15:22 | 49.96057 | -119.37981 | 1419 ft | 14 kts | 177° |
| 2026-04-29 15:22 | 49.95964 | -119.37969 | 1419 ft | 13 kts | 174° |
| 2026-04-29 15:22 | 49.95875 | -119.37957 | 1419 ft | 13 kts | 176° |
| 2026-04-29 15:22 | 49.95788 | -119.37945 | 1419 ft | 12 kts | 175° |
| 2026-04-29 15:23 | 49.95703 | -119.37932 | 1419 ft | 12 kts | 174° |
| 2026-04-29 15:23 | 49.95620 | -119.37921 | 1421 ft | 12 kts | 175° |
| 2026-04-29 15:23 | 49.95539 | -119.37909 | 1418 ft | 12 kts | 175° |
| 2026-04-29 15:23 | 49.95452 | -119.37898 | 1419 ft | 14 kts | 174° |
| 2026-04-29 15:24 | 49.95351 | -119.37883 | 1418 ft | 15 kts | 174° |
| 2026-04-29 15:24 | 49.95241 | -119.37868 | 1418 ft | 14 kts | 175° |
| 2026-04-29 15:24 | 49.95169 | -119.37859 | 1418 ft | 8 kts | 182° |
| 2026-04-29 15:24 | 49.95126 | -119.37905 | 1419 ft | 7 kts | 199° |
| 2026-04-29 15:25 | 49.95088 | -119.37923 | 1419 ft | 6 kts | 238° |
| 2026-04-29 15:25 | 49.95095 | -119.37983 | 1419 ft | 6 kts | 288° |
| 2026-04-29 15:25 | 49.95100 | -119.38006 | 1419 ft | 1 kts | 288° |
| 2026-04-29 15:25 | 49.95101 | -119.38011 | 1419 ft | 0 kts | 289° |